createdAt,value
2022-12-16T00:01:57.237Z,95189.88
2022-12-16T00:04:28.146Z,95171.56
2022-12-16T00:07:05.330Z,95184.21
2022-12-16T00:09:35.853Z,95181.39
2022-12-16T00:12:08.133Z,95188.64
2022-12-16T00:14:57.699Z,95188.64
2022-12-16T00:17:31.298Z,95165.42
2022-12-16T00:20:07.812Z,95165.42
2022-12-16T00:22:51.755Z,95190.31
2022-12-16T00:25:19.601Z,95190.31
2022-12-16T00:27:58.749Z,95179.62
2022-12-16T00:30:32.791Z,95179.62
2022-12-16T00:33:09.355Z,95171.53
2022-12-16T00:35:51.878Z,95167.72
2022-12-16T00:38:28.731Z,95188.20
2022-12-16T00:41:03.906Z,95186.44
2022-12-16T00:43:41.274Z,95186.44
2022-12-16T00:46:14.900Z,95180.11
2022-12-16T00:48:45.388Z,95189.27
2022-12-16T00:51:14.276Z,95173.19
2022-12-16T00:53:47.253Z,95167.75
2022-12-16T00:56:16.575Z,95178.39
2022-12-16T00:58:45.929Z,95159.86
2022-12-16T01:01:15.986Z,95180.83
2022-12-16T01:03:47.703Z,95157.41
2022-12-16T01:06:57.971Z,95178.19
2022-12-16T01:09:36.166Z,95165.13
2022-12-16T01:12:10.992Z,95166.41
2022-12-16T01:14:41.636Z,95164.48
2022-12-16T01:17:12.149Z,95164.48
2022-12-16T01:19:41.165Z,95173.14
2022-12-16T01:22:11.585Z,95168.09
2022-12-16T01:24:43.003Z,95170.63
2022-12-16T01:27:11.638Z,95177.28
2022-12-16T01:29:40.483Z,95166.81
2022-12-16T01:32:10.499Z,95157.85
2022-12-16T01:34:39.097Z,95148.28
2022-12-16T01:37:07.762Z,95148.06
2022-12-16T01:39:37.536Z,95154.91
2022-12-16T01:42:08.404Z,95146.96
2022-12-16T01:44:37.161Z,95150.59
2022-12-16T01:47:08.053Z,95146.13
2022-12-16T01:50:01.246Z,95153.38
2022-12-16T01:52:32.813Z,95130.16
2022-12-16T01:55:10.490Z,95130.16
2022-12-16T01:57:47.929Z,95140.63
2022-12-16T02:00:16.927Z,95143.13
2022-12-16T02:02:47.890Z,95148.13
2022-12-16T02:05:23.281Z,95148.13
2022-12-16T02:08:09.734Z,95147.88
2022-12-16T02:10:47.604Z,95136.36
2022-12-16T02:13:44.897Z,95119.91
2022-12-16T02:16:28.757Z,95125.11
2022-12-16T02:19:01.659Z,95100.90
2022-12-16T02:21:50.050Z,95108.80
2022-12-16T02:24:29.414Z,95108.80
2022-12-16T02:27:08.536Z,95116.43
2022-12-16T02:29:49.784Z,95116.43
2022-12-16T02:32:36.735Z,95107.45
2022-12-16T02:35:11.302Z,95116.45
2022-12-16T02:37:45.973Z,95112.86
2022-12-16T02:40:28.458Z,95105.52
2022-12-16T02:43:15.029Z,95105.52
2022-12-16T02:45:45.293Z,95115.83
2022-12-16T02:48:13.957Z,95129.73
2022-12-16T02:50:45.890Z,95138.55
2022-12-16T02:53:17.673Z,95126.66
2022-12-16T02:56:27.136Z,95144.48
2022-12-16T02:59:07.291Z,95142.33
2022-12-16T03:05:02.011Z,95156.58
2022-12-16T03:07:33.868Z,95170.75
2022-12-16T03:10:05.386Z,95130.50
2022-12-16T03:12:36.513Z,95111.12
2022-12-16T03:15:07.794Z,95111.12
2022-12-16T03:17:39.989Z,95125.66
2022-12-16T03:20:14.420Z,95115.33
2022-12-16T03:22:48.122Z,95115.33
2022-12-16T03:25:16.900Z,95124.34
2022-12-16T03:28:17.607Z,95124.23
2022-12-16T03:30:49.314Z,95111.34
2022-12-16T03:33:30.017Z,95099.39
2022-12-16T03:36:09.038Z,95099.39
2022-12-16T03:38:39.970Z,95103.64
2022-12-16T03:41:09.810Z,95114.28
2022-12-16T03:43:42.191Z,95140.23
2022-12-16T03:46:11.925Z,95144.86
2022-12-16T03:48:49.099Z,95140.69
2022-12-16T03:51:18.761Z,95140.16
2022-12-16T03:53:47.826Z,95127.17
2022-12-16T03:56:16.569Z,95129.92
2022-12-16T03:58:47.148Z,95139.73
2022-12-16T04:01:16.064Z,95145.77
2022-12-16T04:03:44.747Z,95143.27
2022-12-16T04:06:15.560Z,95156.27
2022-12-16T04:08:44.215Z,95165.76
2022-12-16T04:11:31.053Z,95142.58
2022-12-16T04:14:17.917Z,95142.58
2022-12-16T04:17:04.720Z,95140.92
2022-12-16T04:19:55.267Z,95146.53
2022-12-16T04:22:50.542Z,95154.03
2022-12-16T04:25:22.413Z,95144.66
2022-12-16T04:27:51.822Z,95144.48
2022-12-16T04:30:32.354Z,95137.34
2022-12-16T04:33:21.986Z,95124.20
2022-12-16T04:36:08.379Z,95141.34
2022-12-16T04:38:55.098Z,95134.27
2022-12-16T04:41:41.656Z,95142.23
2022-12-16T04:44:28.561Z,95140.94
2022-12-16T04:47:16.267Z,95118.13
2022-12-16T04:50:09.018Z,95112.74
2022-12-16T04:55:48.212Z,95117.06
2022-12-16T04:58:34.719Z,95121.34
2022-12-16T05:01:21.562Z,95118.27
2022-12-16T05:04:08.464Z,95141.48
2022-12-16T05:06:55.005Z,95111.28
2022-12-16T05:09:41.545Z,95121.57
2022-12-16T05:12:28.386Z,95145.07
2022-12-16T05:15:17.937Z,95138.14
2022-12-16T05:18:04.789Z,95130.63
2022-12-16T05:20:51.442Z,95132.06
2022-12-16T05:24:53.050Z,95142.76
2022-12-16T05:30:30.531Z,95140.92
2022-12-16T05:33:20.682Z,95154.99
2022-12-16T05:36:12.880Z,95154.99
2022-12-16T05:38:59.200Z,95162.72
2022-12-16T05:41:47.484Z,95182.78
2022-12-16T05:44:34.242Z,95182.78
2022-12-16T05:54:16.387Z,95186.73
2022-12-16T05:57:10.056Z,95167.41
2022-12-16T06:06:25.249Z,95193.91
2022-12-16T06:19:30.299Z,95217.50
2022-12-16T06:21:51.344Z,95161.55
2022-12-16T06:22:20.189Z,95220.81
2022-12-16T06:25:40.281Z,95222.08
2022-12-16T06:28:40.965Z,95218.97
2022-12-16T06:31:32.844Z,95218.97
2022-12-16T06:34:19.825Z,95221.47
2022-12-16T06:37:18.857Z,95207.27
2022-12-16T06:40:15.468Z,95212.97
2022-12-16T06:43:10.316Z,95232.88
2022-12-16T06:49:16.033Z,95205.56
2022-12-16T06:53:07.386Z,95205.56
2022-12-16T06:56:11.998Z,95209.05
2022-12-16T07:09:04.796Z,95215.08
2022-12-16T07:22:01.818Z,95187.34
2022-12-16T07:25:07.695Z,95202.28
2022-12-16T07:34:42.007Z,95202.52
2022-12-16T07:38:06.226Z,95225.43
2022-12-16T07:41:54.091Z,95217.62
2022-12-16T07:44:25.608Z,95241.06
2022-12-16T07:47:14.757Z,95218.16
2022-12-16T07:53:31.099Z,95223.91
2022-12-16T08:02:41.796Z,95226.07
2022-12-16T08:05:47.732Z,95236.02
2022-12-16T08:08:34.502Z,95227.26
2022-12-16T08:11:23.358Z,95213.14
2022-12-16T08:14:10.418Z,95194.77
2022-12-16T08:17:01.357Z,95242.71
2022-12-16T08:19:50.709Z,95241.09
2022-12-16T08:22:39.893Z,95208.67
2022-12-16T08:29:27.331Z,95241.31
2022-12-16T08:42:25.166Z,95145.39
2022-12-16T08:45:22.616Z,95225.95
2022-12-16T08:48:30.512Z,95215.23
2022-12-16T09:01:24.349Z,95127.66
2022-12-16T09:28:53.187Z,95145.25
2022-12-16T09:31:47.307Z,95154.58
2022-12-16T09:38:36.921Z,95139.78
2022-12-16T09:45:20.164Z,95120.08
2022-12-16T09:48:18.819Z,95137.19
2022-12-16T09:51:11.105Z,95136.68
2022-12-16T09:53:59.408Z,95111.55
2022-12-16T09:56:48.712Z,95122.47
2022-12-16T09:59:47.779Z,95126.22
2022-12-16T10:02:43.432Z,95122.44
2022-12-16T10:09:23.900Z,95124.90
2022-12-16T10:12:33.973Z,95119.38
2022-12-16T10:15:39.033Z,95129.07
2022-12-16T10:18:30.504Z,95126.50
2022-12-16T10:21:32.409Z,95114.10
2022-12-16T10:24:46.419Z,95140.76
2022-12-16T10:27:52.902Z,95095.52
2022-12-16T10:30:39.738Z,95107.83
2022-12-16T10:33:29.557Z,95098.89
2022-12-16T10:36:18.764Z,95082.83
2022-12-16T10:39:16.723Z,95083.59
2022-12-16T10:42:06.916Z,95075.09
2022-12-16T10:45:14.750Z,95066.94
2022-12-16T10:47:54.264Z,95098.53
2022-12-16T10:50:43.620Z,95099.77
2022-12-16T10:53:40.098Z,95086.66
2022-12-16T10:56:43.925Z,95079.08
2022-12-16T10:59:34.143Z,95072.22
2022-12-16T11:02:36.488Z,95066.63
2022-12-16T11:05:43.189Z,95101.11
2022-12-16T11:08:46.586Z,95073.86
2022-12-16T11:11:49.943Z,95074.94
2022-12-16T11:15:28.033Z,95080.94
2022-12-16T11:17:43.318Z,95076.91
2022-12-16T11:20:43.527Z,95073.30
2022-12-16T11:23:44.610Z,95078.90
2022-12-16T11:26:42.724Z,95075.20
2022-12-16T11:29:35.288Z,95072.61
2022-12-16T11:33:04.535Z,95062.70
2022-12-16T11:35:54.114Z,95049.93
2022-12-16T11:38:50.088Z,95063.80
2022-12-16T11:41:50.196Z,95060.33
2022-12-16T11:54:20.267Z,95048.98
2022-12-16T11:57:17.886Z,95050.91
2022-12-16T12:00:26.935Z,95020.73
2022-12-16T12:03:45.314Z,95045.06
2022-12-16T12:07:14.771Z,95036.88
2022-12-16T12:10:08.044Z,95041.29
2022-12-16T12:16:31.950Z,95022.09
2022-12-16T12:19:39.402Z,95031.45
2022-12-16T12:22:33.835Z,95019.22
2022-12-16T12:25:47.056Z,95011.96
2022-12-16T12:32:06.781Z,95010.63
2022-12-16T12:35:31.189Z,95017.89
2022-12-16T12:38:44.833Z,95008.14
2022-12-16T12:41:42.440Z,94997.81
2022-12-16T12:44:48.874Z,95009.09
2022-12-16T12:47:40.011Z,95003.72
2022-12-16T12:50:29.593Z,95002.23
2022-12-16T12:53:39.267Z,95013.30
2022-12-16T12:56:53.151Z,95002.58
2022-12-16T12:59:51.788Z,95007.38
2022-12-16T13:02:42.789Z,95012.72
2022-12-16T13:05:41.728Z,95020.73
2022-12-16T13:09:01.819Z,95010.38
2022-12-16T13:25:38.848Z,94987.41
2022-12-16T13:28:33.122Z,95011.16
2022-12-16T13:31:31.925Z,94985.77
2022-12-16T13:34:23.678Z,94989.79
2022-12-16T13:51:03.429Z,95023.42
2022-12-16T13:54:02.083Z,95024.38
2022-12-16T13:57:04.969Z,95021.90
2022-12-16T13:59:52.235Z,95020.17
2022-12-16T14:02:53.245Z,95018.06
2022-12-16T14:05:43.184Z,95048.33
2022-12-16T14:08:40.596Z,95033.46
2022-12-16T14:11:33.304Z,95041.27
2022-12-16T14:17:46.591Z,95055.77
2022-12-16T14:20:48.335Z,95054.03
2022-12-16T14:30:57.059Z,95055.63
2022-12-16T14:57:51.707Z,95053.53
2022-12-16T15:00:43.528Z,95039.05
2022-12-16T15:03:56.272Z,95043.96
2022-12-16T15:07:02.752Z,95048.14
2022-12-16T15:10:00.277Z,95043.46
2022-12-16T15:13:01.199Z,95036.17
2022-12-16T15:26:44.283Z,95031.50
2022-12-16T15:29:52.285Z,95047.23
2022-12-16T15:32:50.875Z,95054.13
2022-12-16T15:35:49.683Z,95064.16
2022-12-16T15:39:38.290Z,95050.84
2022-12-16T16:00:00.178Z,95075.78
2022-12-16T16:02:50.203Z,95080.59
2022-12-16T16:05:45.993Z,95099.08
2022-12-16T16:08:32.838Z,95085.00
2022-12-16T16:11:21.811Z,95088.66
2022-12-16T16:14:14.826Z,95074.94
2022-12-16T16:17:15.401Z,95066.39
2022-12-16T16:20:04.237Z,95073.56
2022-12-16T16:23:09.683Z,95081.41
2022-12-16T16:25:52.196Z,95077.86
2022-12-16T16:28:48.975Z,95079.71
2022-12-16T16:35:10.970Z,95093.77
2022-12-16T16:37:57.572Z,95098.53
2022-12-16T16:52:26.104Z,95094.55
2022-12-16T17:05:15.090Z,95093.55
2022-12-16T17:13:02.820Z,95096.77
2022-12-16T17:19:52.356Z,95093.56
2022-12-16T17:22:39.178Z,95090.97
2022-12-16T17:25:31.200Z,95084.75
2022-12-16T17:41:39.716Z,95090.77
2022-12-16T17:44:28.405Z,95085.34
2022-12-16T17:50:38.510Z,95090.97
2022-12-16T17:53:29.081Z,95032.97
2022-12-16T18:06:46.642Z,95100.41
2022-12-16T18:09:33.142Z,95116.16
2022-12-16T18:12:21.554Z,95124.09
2022-12-16T18:15:08.133Z,95070.19
2022-12-16T18:17:54.310Z,95132.84
2022-12-16T18:20:40.829Z,95111.47
2022-12-16T18:23:27.101Z,95114.13
2022-12-16T18:26:19.793Z,95125.44
2022-12-16T18:29:09.030Z,95114.20
2022-12-16T18:31:59.860Z,95122.72
2022-12-16T18:35:04.628Z,95109.81
2022-12-16T18:37:53.748Z,95131.58
2022-12-16T18:40:41.415Z,95132.47
2022-12-16T18:43:27.920Z,95124.86
2022-12-16T18:46:15.624Z,95143.26
2022-12-16T18:49:02.536Z,95129.44
2022-12-16T18:51:49.226Z,95129.97
2022-12-16T18:54:35.630Z,95143.01
2022-12-16T18:57:22.174Z,95154.19
2022-12-16T19:00:09.155Z,95137.84
2022-12-16T19:02:58.291Z,95170.13
2022-12-16T19:05:58.542Z,95157.02
2022-12-16T19:08:42.743Z,95155.19
2022-12-16T19:18:51.518Z,95144.70
2022-12-16T19:31:08.462Z,95176.92
2022-12-16T19:37:27.507Z,95202.84
2022-12-16T19:47:55.586Z,95180.34
2022-12-16T19:50:56.567Z,95175.80
2022-12-16T19:53:50.499Z,95182.14
2022-12-16T20:00:14.468Z,95198.42
2022-12-16T20:03:02.113Z,95182.58
2022-12-16T20:05:49.309Z,95182.14
2022-12-16T20:12:21.208Z,95174.79
2022-12-16T20:18:33.462Z,95174.78
2022-12-16T20:24:33.165Z,95178.09
2022-12-16T20:27:19.870Z,95185.69
2022-12-16T20:30:09.323Z,95190.02
2022-12-16T20:33:05.790Z,95179.64
2022-12-16T20:35:56.136Z,95196.45
2022-12-16T20:38:47.039Z,95192.93
2022-12-16T20:41:33.690Z,95183.34
2022-12-16T20:44:22.126Z,95190.39
2022-12-16T20:47:08.914Z,95190.59
2022-12-16T20:50:04.081Z,95187.08
2022-12-16T20:52:51.249Z,95189.34
2022-12-16T21:10:03.482Z,95193.61
2022-12-16T21:19:39.142Z,95189.63
2022-12-16T21:22:38.361Z,95188.34
2022-12-16T21:36:03.090Z,95182.48
2022-12-16T21:38:50.086Z,95185.61
2022-12-16T21:41:37.687Z,95184.28
2022-12-16T21:44:26.054Z,95182.11
2022-12-16T21:47:14.065Z,95189.26
2022-12-16T21:53:12.083Z,95177.69
2022-12-16T21:55:59.829Z,95188.08
2022-12-16T21:58:47.173Z,95192.63
2022-12-16T22:01:34.232Z,95188.67
2022-12-16T22:04:21.563Z,95181.92
2022-12-16T22:07:08.899Z,95177.74
2022-12-16T22:09:56.279Z,95186.07
2022-12-16T22:12:43.263Z,95161.44
2022-12-16T22:15:29.766Z,95187.69
2022-12-16T22:18:16.600Z,95165.20
2022-12-16T22:21:03.451Z,95169.49
2022-12-16T22:23:50.257Z,95196.97
2022-12-16T22:26:37.059Z,95191.22
2022-12-16T22:29:23.557Z,95182.52
2022-12-16T22:32:10.016Z,95161.05
2022-12-16T22:34:56.603Z,95171.94
2022-12-16T22:37:44.706Z,95169.44
2022-12-16T22:40:31.547Z,95166.56
2022-12-16T22:43:18.445Z,95164.12
2022-12-16T22:46:05.428Z,95158.62
2022-12-16T22:48:51.941Z,95178.91
2022-12-16T22:51:38.457Z,95147.86
2022-12-16T22:54:24.788Z,95166.37
2022-12-16T22:57:11.432Z,95153.48
2022-12-16T22:59:57.852Z,95178.61
2022-12-16T23:02:44.519Z,95153.15
2022-12-16T23:05:31.473Z,95168.45
2022-12-16T23:08:17.896Z,95150.28
2022-12-16T23:11:05.541Z,95161.05
2022-12-16T23:13:51.976Z,95143.21
2022-12-16T23:16:39.174Z,95141.67
2022-12-16T23:19:25.218Z,95156.02
2022-12-16T23:22:11.811Z,95134.22
2022-12-16T23:24:58.184Z,95147.23
2022-12-16T23:27:44.821Z,95145.23
2022-12-16T23:30:31.908Z,95131.13
2022-12-16T23:33:19.392Z,95146.11
2022-12-16T23:36:06.314Z,95129.02
2022-12-16T23:39:03.018Z,95119.98
2022-12-16T23:41:49.377Z,95133.89
2022-12-16T23:44:36.054Z,95104.61
2022-12-16T23:47:22.825Z,95115.30
2022-12-16T23:50:11.153Z,95134.88
2022-12-16T23:52:57.338Z,95078.92
2022-12-16T23:55:43.703Z,95083.45
2022-12-16T23:58:30.477Z,95111.43
